createdAt,value
2018-06-09T00:02:11.645Z,8.13
2018-06-09T00:04:40.430Z,12.63
2018-06-09T00:07:10.260Z,9.53
2018-06-09T00:09:39.054Z,8.73
2018-06-09T00:12:08.206Z,6.40
2018-06-09T00:14:36.956Z,10.20
2018-06-09T00:17:05.934Z,8.20
2018-06-09T00:19:34.755Z,9.80
2018-06-09T00:22:04.621Z,8.10
2018-06-09T00:24:33.533Z,6.53
2018-06-09T00:27:04.831Z,10.13
2018-06-09T00:29:33.707Z,7.57
2018-06-09T00:32:02.468Z,16.00
2018-06-09T00:34:31.838Z,9.17
2018-06-09T00:37:00.755Z,9.13
2018-06-09T00:39:29.697Z,6.70
2018-06-09T00:41:58.452Z,7.23
2018-06-09T00:44:27.311Z,6.53
2018-06-09T00:46:59.261Z,8.57
2018-06-09T00:49:28.027Z,8.53
2018-06-09T00:51:56.856Z,8.57
2018-06-09T00:54:25.637Z,13.10
2018-06-09T00:57:06.341Z,9.43
2018-06-09T01:02:54.916Z,5.77
2018-06-09T01:05:24.449Z,8.37
2018-06-09T01:07:53.962Z,7.23
2018-06-09T01:10:27.404Z,8.50
2018-06-09T01:12:57.256Z,11.47
2018-06-09T01:15:27.949Z,7.63
2018-06-09T01:17:57.498Z,6.83
2018-06-09T01:20:33.599Z,8.00
2018-06-09T01:23:05.777Z,9.73
2018-06-09T01:25:35.567Z,8.30
2018-06-09T01:28:06.472Z,7.27
2018-06-09T01:30:36.143Z,6.43
2018-06-09T01:33:07.982Z,12.63
2018-06-09T01:35:38.749Z,8.83
2018-06-09T01:38:08.987Z,12.63
2018-06-09T01:40:49.046Z,10.30
2018-06-09T01:43:24.937Z,12.43
2018-06-09T01:46:02.011Z,7.23
2018-06-09T01:48:32.190Z,7.70
2018-06-09T01:51:14.320Z,7.17
2018-06-09T01:53:48.326Z,8.03
2018-06-09T01:56:26.651Z,10.50
2018-06-09T01:59:00.694Z,7.83
2018-06-09T02:01:32.539Z,7.47
2018-06-09T02:04:04.072Z,8.13
2018-06-09T02:06:40.558Z,9.23
2018-06-09T02:09:12.856Z,11.50
2018-06-09T02:11:46.726Z,9.43
2018-06-09T02:14:18.687Z,7.47
2018-06-09T02:16:48.361Z,11.40
2018-06-09T02:19:24.173Z,7.20
2018-06-09T02:21:53.961Z,9.73
2018-06-09T02:24:35.018Z,11.03
2018-06-09T02:27:06.831Z,7.73
2018-06-09T02:29:36.437Z,10.33
2018-06-09T02:32:10.855Z,12.20
2018-06-09T02:34:41.215Z,8.43
2018-06-09T02:37:12.227Z,12.17
2018-06-09T02:39:43.238Z,10.00
2018-06-09T02:42:13.092Z,12.13
2018-06-09T02:44:44.861Z,12.20
2018-06-09T02:47:15.494Z,9.20
2018-06-09T02:49:46.317Z,11.03
2018-06-09T02:52:16.088Z,9.33
2018-06-09T02:54:50.813Z,11.30
2018-06-09T02:57:25.299Z,10.77
2018-06-09T02:59:59.078Z,9.93
2018-06-09T03:02:36.190Z,9.80
2018-06-09T03:05:05.956Z,11.33
2018-06-09T03:07:39.356Z,13.10
2018-06-09T03:10:11.690Z,9.77
2018-06-09T03:12:41.305Z,11.73
2018-06-09T03:15:10.760Z,14.70
2018-06-09T03:17:43.002Z,11.83
2018-06-09T03:20:13.767Z,12.73
2018-06-09T03:22:43.830Z,14.50
2018-06-09T03:25:15.818Z,13.40
2018-06-09T03:27:45.446Z,15.20
2018-06-09T03:30:16.276Z,17.10
2018-06-09T03:32:45.983Z,20.57
2018-06-09T03:35:21.016Z,15.93
2018-06-09T03:37:51.634Z,16.30
2018-06-09T03:40:27.080Z,17.57
2018-06-09T03:43:00.999Z,16.80
2018-06-09T03:45:33.089Z,20.80
2018-06-09T03:48:09.861Z,19.60
2018-06-09T03:50:48.860Z,17.10
2018-06-09T03:53:20.867Z,14.80
2018-06-09T03:55:54.903Z,13.30
2018-06-09T03:58:30.820Z,15.00
2018-06-09T04:01:06.983Z,17.50
2018-06-09T04:03:37.492Z,13.37
2018-06-09T04:06:08.676Z,17.13
2018-06-09T04:08:40.498Z,16.40
2018-06-09T04:11:25.768Z,13.53
2018-06-09T04:13:56.687Z,15.70
2018-06-09T04:16:27.498Z,19.23
2018-06-09T04:18:58.239Z,12.47
2018-06-09T04:21:30.893Z,12.20
2018-06-09T04:24:03.892Z,17.53
2018-06-09T04:26:39.072Z,13.03
2018-06-09T04:29:17.461Z,17.20
2018-06-09T04:31:49.743Z,17.20
2018-06-09T04:34:22.849Z,13.17
2018-06-09T04:36:54.648Z,12.33
2018-06-09T04:39:31.195Z,10.87
2018-06-09T04:42:08.448Z,11.77
2018-06-09T04:44:40.355Z,12.33
2018-06-09T04:47:10.946Z,11.57
2018-06-09T04:49:45.100Z,13.60
2018-06-09T04:52:15.437Z,12.20
2018-06-09T04:54:46.346Z,10.50
2018-06-09T04:57:17.159Z,13.50
2018-06-09T04:59:48.752Z,11.33
2018-06-09T05:02:25.825Z,9.63
2018-06-09T05:04:57.699Z,13.17
2018-06-09T05:07:29.713Z,14.87
2018-06-09T05:10:07.257Z,12.20
2018-06-09T05:12:39.760Z,12.00
2018-06-09T05:15:14.513Z,13.00
2018-06-09T05:17:48.888Z,11.30
2018-06-09T05:20:21.534Z,11.67
2018-06-09T05:22:53.005Z,18.33
2018-06-09T05:25:24.964Z,10.00
2018-06-09T05:27:58.026Z,11.30
2018-06-09T05:30:32.091Z,12.70
2018-06-09T05:33:06.824Z,10.90
2018-06-09T05:35:41.412Z,10.90
2018-06-09T05:38:16.892Z,17.33
2018-06-09T05:40:49.638Z,12.63
2018-06-09T05:43:22.116Z,13.10
2018-06-09T05:45:53.647Z,10.20
2018-06-09T05:48:28.226Z,13.13
2018-06-09T05:51:00.021Z,15.83
2018-06-09T05:53:36.410Z,9.80
2018-06-09T05:56:07.371Z,11.10
2018-06-09T05:58:42.708Z,9.80
2018-06-09T06:01:18.290Z,13.50
2018-06-09T06:03:49.048Z,9.67
2018-06-09T06:06:23.559Z,10.20
2018-06-09T06:08:57.117Z,8.40
2018-06-09T06:11:42.652Z,8.53
2018-06-09T06:14:16.319Z,9.20
2018-06-09T06:16:47.349Z,11.93
2018-06-09T06:19:23.750Z,11.30
2018-06-09T06:21:54.894Z,11.20
2018-06-09T06:24:28.582Z,11.40
2018-06-09T06:27:10.453Z,11.10
2018-06-09T06:29:42.674Z,13.40
2018-06-09T06:32:13.900Z,9.73
2018-06-09T06:34:46.141Z,12.23
2018-06-09T06:37:17.972Z,11.93
2018-06-09T06:39:53.743Z,8.90
2018-06-09T06:42:24.868Z,10.57
2018-06-09T06:45:05.306Z,7.40
2018-06-09T06:47:38.269Z,9.03
2018-06-09T06:50:22.426Z,9.43
2018-06-09T06:52:54.436Z,10.70
2018-06-09T06:55:36.980Z,10.87
2018-06-09T06:58:09.664Z,11.87
2018-06-09T07:00:42.094Z,13.33
2018-06-09T07:03:14.405Z,10.23
2018-06-09T07:05:52.516Z,9.23
2018-06-09T07:08:27.207Z,9.23
2018-06-09T07:11:05.739Z,8.60
2018-06-09T07:13:48.063Z,32.20
2018-06-09T07:16:26.098Z,12.60
2018-06-09T07:19:07.794Z,12.00
2018-06-09T07:21:48.324Z,14.70
2018-06-09T07:24:19.983Z,13.20
2018-06-09T07:26:54.057Z,16.47
2018-06-09T07:29:26.286Z,11.70
2018-06-09T07:32:07.026Z,14.37
2018-06-09T07:34:39.980Z,12.83
2018-06-09T07:37:18.587Z,21.63
2018-06-09T07:40:03.299Z,11.90
2018-06-09T07:42:43.453Z,13.07
2018-06-09T07:45:17.493Z,10.10
2018-06-09T07:47:54.050Z,12.03
2018-06-09T07:50:27.531Z,13.53
2018-06-09T07:53:17.255Z,14.03
2018-06-09T07:56:03.344Z,10.17
2018-06-09T07:58:50.918Z,13.50
2018-06-09T08:01:32.919Z,11.37
2018-06-09T08:04:12.855Z,10.00
2018-06-09T08:06:47.585Z,17.07
2018-06-09T08:09:39.432Z,19.70
2018-06-09T08:12:15.431Z,12.90
2018-06-09T08:14:53.856Z,53.17
2018-06-09T08:17:33.922Z,9.40
2018-06-09T08:23:18.645Z,13.27
2018-06-09T08:25:53.966Z,66.07
2018-06-09T08:28:44.119Z,14.00
2018-06-09T08:31:27.880Z,9.77
2018-06-09T08:34:11.239Z,15.53
2018-06-09T08:36:50.520Z,15.23
2018-06-09T08:39:34.967Z,29.03
2018-06-09T08:42:14.532Z,19.93
2018-06-09T08:44:50.523Z,14.67
2018-06-09T08:47:30.131Z,9.67
2018-06-09T08:50:04.288Z,10.23
2018-06-09T08:55:35.905Z,14.73
2018-06-09T08:58:14.064Z,13.47
2018-06-09T09:00:52.113Z,16.83
2018-06-09T09:03:35.644Z,11.13
2018-06-09T09:06:12.227Z,15.00
2018-06-09T09:08:48.635Z,13.50
2018-06-09T09:11:25.038Z,13.70
2018-06-09T09:14:04.063Z,9.57
2018-06-09T09:16:39.620Z,18.60
2018-06-09T09:19:20.425Z,8.93
2018-06-09T09:22:03.524Z,12.80
2018-06-09T09:24:46.358Z,10.83
2018-06-09T09:27:26.328Z,12.20
2018-06-09T09:30:07.705Z,8.03
2018-06-09T09:35:43.397Z,8.93
2018-06-09T09:38:30.353Z,11.97
2018-06-09T09:41:09.053Z,11.17
2018-06-09T09:44:00.678Z,9.27
2018-06-09T09:52:26.598Z,9.47
2018-06-09T10:00:47.488Z,8.50
2018-06-09T10:03:37.392Z,13.83
2018-06-09T10:06:22.151Z,7.87
2018-06-09T10:09:02.995Z,7.83
2018-06-09T10:11:40.990Z,7.57
2018-06-09T10:14:23.255Z,9.53
2018-06-09T10:17:03.860Z,11.77
2018-06-09T10:19:39.678Z,10.67
2018-06-09T10:22:15.012Z,20.13
2018-06-09T10:27:42.698Z,15.27
2018-06-09T10:30:21.045Z,9.43
2018-06-09T10:33:08.538Z,9.33
2018-06-09T10:35:51.870Z,10.73
2018-06-09T10:38:39.912Z,8.20
2018-06-09T10:41:16.508Z,7.80
2018-06-09T10:52:41.054Z,9.93
2018-06-09T10:55:26.232Z,8.50
2018-06-09T10:58:09.892Z,11.53
2018-06-09T11:03:33.593Z,10.13
2018-06-09T11:06:16.765Z,8.50
2018-06-09T11:08:59.798Z,10.10
2018-06-09T11:11:44.495Z,10.70
2018-06-09T11:14:26.905Z,15.37
2018-06-09T11:17:11.492Z,10.43
2018-06-09T11:19:52.919Z,8.40
2018-06-09T11:22:25.984Z,13.87
2018-06-09T11:25:09.467Z,12.83
2018-06-09T11:27:50.399Z,12.53
2018-06-09T11:33:15.848Z,10.57
2018-06-09T11:36:06.957Z,13.00
2018-06-09T11:38:56.502Z,10.50
2018-06-09T11:41:50.387Z,9.17
2018-06-09T11:44:38.541Z,12.20
2018-06-09T11:50:15.514Z,8.33
2018-06-09T11:55:46.184Z,8.70
2018-06-09T11:58:24.045Z,13.37
2018-06-09T12:06:53.520Z,17.23
2018-06-09T12:09:45.787Z,10.73
2018-06-09T12:12:21.616Z,10.80
2018-06-09T12:15:03.613Z,11.23
2018-06-09T12:17:42.854Z,16.07
2018-06-09T12:20:26.173Z,8.40
2018-06-09T12:23:00.365Z,13.20
2018-06-09T12:25:37.886Z,11.13
2018-06-09T12:28:18.436Z,11.57
2018-06-09T12:31:04.454Z,10.23
2018-06-09T12:33:45.515Z,13.20
2018-06-09T12:36:26.988Z,9.67
2018-06-09T12:38:59.520Z,8.90
2018-06-09T12:41:46.621Z,9.33
2018-06-09T12:44:26.625Z,11.13
2018-06-09T12:47:16.099Z,10.83
2018-06-09T12:52:38.056Z,10.33
2018-06-09T12:55:31.263Z,10.93
2018-06-09T12:58:13.862Z,11.17
2018-06-09T13:00:52.331Z,10.20
2018-06-09T13:03:23.149Z,11.43
2018-06-09T13:06:00.921Z,11.07
2018-06-09T13:08:39.600Z,10.67
2018-06-09T13:11:34.857Z,15.20
2018-06-09T13:14:19.300Z,10.00
2018-06-09T13:17:02.734Z,9.17
2018-06-09T13:19:42.298Z,10.27
2018-06-09T13:22:26.856Z,11.83
2018-06-09T13:30:49.035Z,10.07
2018-06-09T13:33:36.875Z,16.33
2018-06-09T13:36:21.451Z,10.37
2018-06-09T13:38:56.125Z,11.03
2018-06-09T13:41:47.396Z,8.90
2018-06-09T13:44:25.601Z,12.43
2018-06-09T13:47:08.987Z,12.03
2018-06-09T13:49:50.157Z,12.07
2018-06-09T13:52:27.983Z,10.50
2018-06-09T13:55:10.780Z,13.10
2018-06-09T13:57:46.030Z,9.80
2018-06-09T14:00:19.945Z,12.80
2018-06-09T14:03:06.562Z,13.07
2018-06-09T14:05:36.658Z,8.97
2018-06-09T14:08:12.184Z,11.13
2018-06-09T14:10:42.330Z,10.40
2018-06-09T14:13:17.537Z,8.40
2018-06-09T14:15:57.420Z,12.93
2018-06-09T14:18:34.516Z,13.43
2018-06-09T14:21:07.867Z,9.93
2018-06-09T14:23:53.243Z,11.97
2018-06-09T14:26:29.601Z,11.10
2018-06-09T14:29:09.556Z,10.10
2018-06-09T14:31:45.652Z,12.33
2018-06-09T14:34:22.536Z,12.10
2018-06-09T14:36:55.934Z,8.53
2018-06-09T14:42:33.852Z,7.50
2018-06-09T14:45:17.414Z,9.40
2018-06-09T14:47:59.778Z,12.27
2018-06-09T14:50:42.105Z,7.93
2018-06-09T14:53:25.739Z,8.13
2018-06-09T14:55:59.916Z,8.63
2018-06-09T15:01:29.162Z,8.37
2018-06-09T15:04:10.239Z,10.60
2018-06-09T15:06:43.045Z,13.57
2018-06-09T15:09:34.693Z,12.97
2018-06-09T15:12:15.218Z,10.50
2018-06-09T15:14:48.305Z,12.40
2018-06-09T15:17:25.775Z,11.23
2018-06-09T15:20:01.727Z,10.13
2018-06-09T15:22:41.926Z,9.07
2018-06-09T15:25:32.626Z,8.70
2018-06-09T15:28:05.189Z,10.60
2018-06-09T15:30:40.072Z,11.10
2018-06-09T15:33:19.401Z,10.43
2018-06-09T15:35:51.334Z,7.90
2018-06-09T15:38:24.111Z,12.50
2018-06-09T15:40:55.669Z,12.30
2018-06-09T15:43:31.807Z,12.17
2018-06-09T15:46:20.387Z,8.33
2018-06-09T15:48:59.371Z,13.20
2018-06-09T15:51:33.861Z,11.17
2018-06-09T15:54:07.209Z,12.00
2018-06-09T15:56:46.166Z,12.87
2018-06-09T15:59:17.717Z,11.80
2018-06-09T16:01:55.312Z,13.13
2018-06-09T16:07:17.838Z,13.53
2018-06-09T16:09:51.784Z,13.93
2018-06-09T16:12:24.203Z,11.57
2018-06-09T16:15:12.922Z,10.93
2018-06-09T16:17:54.417Z,10.23
2018-06-09T16:20:46.231Z,13.93
2018-06-09T16:23:31.230Z,11.50
2018-06-09T16:26:10.257Z,16.20
2018-06-09T16:28:55.645Z,66.10
2018-06-09T16:31:33.458Z,28.47
2018-06-09T16:34:14.999Z,25.07
2018-06-09T16:36:50.240Z,21.17
2018-06-09T16:39:21.227Z,21.50
2018-06-09T16:41:55.064Z,20.70
2018-06-09T16:44:35.764Z,21.53
2018-06-09T16:47:07.017Z,23.80
2018-06-09T16:49:51.576Z,24.77
2018-06-09T16:52:26.711Z,26.27
2018-06-09T16:55:03.253Z,24.97
2018-06-09T16:57:55.591Z,24.00
2018-06-09T17:00:28.925Z,22.17
2018-06-09T17:03:06.242Z,24.57
2018-06-09T17:05:40.309Z,28.50
2018-06-09T17:08:17.113Z,23.73
2018-06-09T17:10:49.843Z,25.43
2018-06-09T17:13:26.633Z,22.90
2018-06-09T17:15:59.219Z,27.03
2018-06-09T17:18:32.601Z,23.13
2018-06-09T17:21:09.181Z,21.07
2018-06-09T17:23:45.257Z,25.23
2018-06-09T17:26:22.442Z,21.93
2018-06-09T17:28:57.159Z,26.40
2018-06-09T17:31:41.066Z,24.60
2018-06-09T17:34:31.048Z,24.50
2018-06-09T17:37:15.596Z,19.87
2018-06-09T17:39:55.145Z,23.13
2018-06-09T17:42:34.471Z,25.33
2018-06-09T17:45:11.576Z,26.53
2018-06-09T17:53:40.195Z,20.80
2018-06-09T17:56:15.422Z,25.23
2018-06-09T17:58:56.948Z,22.70
2018-06-09T18:01:34.638Z,20.20
2018-06-09T18:04:12.362Z,15.80
2018-06-09T18:06:53.074Z,18.50
2018-06-09T18:09:34.511Z,21.77
2018-06-09T18:12:15.924Z,17.43
2018-06-09T18:14:54.374Z,21.30
2018-06-09T18:17:45.315Z,20.13
2018-06-09T18:20:31.229Z,15.70
2018-06-09T18:23:09.629Z,22.83
2018-06-09T18:25:40.807Z,23.10
2018-06-09T18:28:18.544Z,22.30
2018-06-09T18:30:51.850Z,19.60
2018-06-09T18:33:23.962Z,18.50
2018-06-09T18:35:56.446Z,24.17
2018-06-09T18:38:28.273Z,20.43
2018-06-09T18:41:04.030Z,22.80
2018-06-09T18:43:36.243Z,20.57
2018-06-09T18:46:08.066Z,26.37
2018-06-09T18:48:42.809Z,21.90
2018-06-09T18:51:13.433Z,20.67
2018-06-09T18:53:49.050Z,18.10
2018-06-09T18:56:22.655Z,20.50
2018-06-09T18:58:56.328Z,19.47
2018-06-09T19:01:29.857Z,25.60
2018-06-09T19:04:03.143Z,23.63
2018-06-09T19:06:45.842Z,23.60
2018-06-09T19:09:18.504Z,30.37
2018-06-09T19:14:42.466Z,23.50
2018-06-09T19:17:14.583Z,30.23
2018-06-09T19:19:49.172Z,25.00
2018-06-09T19:22:29.873Z,26.30
2018-06-09T19:25:01.476Z,23.63
2018-06-09T19:27:34.576Z,26.77
2018-06-09T19:30:23.791Z,24.63
2018-06-09T19:33:00.620Z,23.40
2018-06-09T19:35:38.353Z,23.23
2018-06-09T19:38:15.689Z,22.37
2018-06-09T19:40:48.554Z,20.10
2018-06-09T19:43:19.451Z,23.93
2018-06-09T19:45:54.327Z,21.60
2018-06-09T19:48:32.390Z,28.40
2018-06-09T19:51:04.778Z,19.63
2018-06-09T19:53:42.093Z,22.33
2018-06-09T19:56:15.974Z,22.33
2018-06-09T19:58:47.516Z,24.33
2018-06-09T20:01:23.623Z,21.97
2018-06-09T20:04:02.388Z,20.87
2018-06-09T20:06:33.978Z,19.13
2018-06-09T20:09:09.892Z,19.63
2018-06-09T20:11:46.012Z,19.47
2018-06-09T20:14:20.984Z,28.03
2018-06-09T20:16:54.821Z,21.17
2018-06-09T20:19:27.776Z,21.37
2018-06-09T20:21:59.727Z,21.80
2018-06-09T20:24:38.300Z,21.50
2018-06-09T20:27:18.388Z,23.57
2018-06-09T20:29:49.026Z,23.50
2018-06-09T20:32:26.764Z,19.90
2018-06-09T20:35:02.698Z,19.97
2018-06-09T20:37:36.451Z,23.50
2018-06-09T20:40:22.993Z,24.43
2018-06-09T20:43:03.981Z,23.90
2018-06-09T20:45:46.731Z,22.53
2018-06-09T20:48:30.469Z,25.77
2018-06-09T20:51:01.256Z,20.90
2018-06-09T20:53:32.890Z,21.97
2018-06-09T20:56:04.266Z,22.50
2018-06-09T20:58:46.327Z,16.90
2018-06-09T21:01:19.094Z,17.90
2018-06-09T21:06:42.645Z,33.33
2018-06-09T21:09:21.926Z,38.67
2018-06-09T21:11:58.078Z,33.77
2018-06-09T21:14:38.563Z,35.23
2018-06-09T21:17:16.097Z,29.30
2018-06-09T21:19:54.025Z,38.00
2018-06-09T21:22:25.293Z,38.00
2018-06-09T21:25:09.585Z,36.77
2018-06-09T21:27:45.944Z,35.60
2018-06-09T21:30:23.095Z,36.90
2018-06-09T21:33:09.524Z,33.47
2018-06-09T21:35:51.524Z,30.97
2018-06-09T21:38:29.191Z,36.27
2018-06-09T21:41:03.347Z,28.43
2018-06-09T21:43:48.991Z,30.13
2018-06-09T21:46:27.689Z,30.87
2018-06-09T21:48:58.298Z,31.40
2018-06-09T21:51:39.053Z,28.97
2018-06-09T21:54:11.032Z,30.20
2018-06-09T21:56:53.870Z,31.50
2018-06-09T21:59:24.464Z,38.23
2018-06-09T22:02:00.213Z,35.90
2018-06-09T22:04:35.323Z,31.23
2018-06-09T22:07:17.254Z,31.47
2018-06-09T22:09:56.896Z,37.20
2018-06-09T22:12:28.279Z,32.73
2018-06-09T22:14:59.398Z,27.70
2018-06-09T22:17:35.372Z,33.97
2018-06-09T22:20:14.996Z,30.10
2018-06-09T22:22:46.324Z,33.73
2018-06-09T22:25:27.687Z,32.70
2018-06-09T22:28:01.129Z,24.90
2018-06-09T22:30:34.750Z,25.33
2018-06-09T22:33:05.160Z,22.13
2018-06-09T22:35:36.851Z,23.50
2018-06-09T22:38:07.712Z,21.83
2018-06-09T22:40:45.041Z,24.60
2018-06-09T22:43:16.047Z,29.63
2018-06-09T22:45:48.694Z,26.17
2018-06-09T22:48:19.369Z,24.60
2018-06-09T22:50:49.999Z,25.50
2018-06-09T22:53:21.508Z,23.13
2018-06-09T22:55:52.266Z,28.07
2018-06-09T22:58:22.874Z,28.33
2018-06-09T23:00:53.598Z,32.50
2018-06-09T23:03:23.827Z,25.60
2018-06-09T23:05:58.191Z,27.17
2018-06-09T23:08:28.396Z,23.57
2018-06-09T23:10:59.007Z,23.53
2018-06-09T23:13:29.263Z,22.83
2018-06-09T23:15:59.792Z,20.93
2018-06-09T23:18:30.343Z,20.97
2018-06-09T23:21:00.513Z,20.23
2018-06-09T23:23:30.793Z,19.60
2018-06-09T23:26:01.144Z,16.93
2018-06-09T23:28:32.214Z,18.07
2018-06-09T23:31:08.078Z,15.73
2018-06-09T23:33:37.828Z,15.07
2018-06-09T23:36:07.677Z,14.97
2018-06-09T23:38:37.442Z,25.10
2018-06-09T23:41:07.599Z,22.30
2018-06-09T23:43:37.677Z,20.30
2018-06-09T23:46:08.185Z,16.77
2018-06-09T23:48:38.169Z,18.73
2018-06-09T23:51:10.067Z,20.13
2018-06-09T23:53:40.357Z,18.53
2018-06-09T23:56:10.593Z,15.43
2018-06-09T23:58:41.282Z,14.67
